Time;durP1;ratioP1;P1;durP2;ratioP2;P2;SDS_P1;SDS_P2;PMS_P1;PMS_P2;Temp;Humidity;BMP_temperature;BMP_pressure;BME280_temperature;BME280_humidity;BME280_pressure;Samples;Min_cycle;Max_cycle;Signal;HPM_P1;HPM_P2
2022/10/17 00:00:24;;;;;;;5.57;1.92;;;;;;;;;;4991107;28;20034;-82
2022/10/17 00:02:49;;;;;;;3.80;1.77;;;;;;;;;;4976009;28;20039;-83
2022/10/17 00:05:14;;;;;;;2.80;1.83;;;;;;;;;;4991143;28;20118;-82
2022/10/17 00:07:40;;;;;;;2.67;1.67;;;;;;;;;;4975144;28;20042;-82
2022/10/17 00:10:06;;;;;;;1.85;1.65;;;;;;;;;;4975465;28;20037;-82
2022/10/17 00:12:31;;;;;;;5.05;1.90;;;;;;;;;;4973736;28;20037;-82
2022/10/17 00:14:56;;;;;;;3.88;1.90;;;;;;;;;;4976059;28;20039;-83
2022/10/17 00:17:22;;;;;;;4.60;1.92;;;;;;;;;;4975880;28;20035;-82
2022/10/17 00:19:47;;;;;;;2.05;1.65;;;;;;;;;;4991095;28;20405;-82
2022/10/17 00:22:13;;;;;;;2.20;1.88;;;;;;;;;;4973745;28;20062;-82
2022/10/17 00:24:38;;;;;;;6.97;2.00;;;;;;;;;;4990668;28;20031;-83
2022/10/17 00:27:04;;;;;;;3.95;2.17;;;;;;;;;;4957420;28;20038;-82
2022/10/17 00:29:29;;;;;;;3.00;1.75;;;;;;;;;;4973303;28;20060;-83
2022/10/17 00:31:55;;;;;;;4.53;1.83;;;;;;;;;;4989837;28;20437;-83
2022/10/17 00:34:21;;;;;;;2.85;1.77;;;;;;;;;;4973461;28;20038;-82
2022/10/17 00:36:46;;;;;;;2.00;1.75;;;;;;;;;;4990259;28;20027;-83
2022/10/17 00:39:12;;;;;;;3.40;1.85;;;;;;;;;;4973232;28;20482;-82
2022/10/17 00:41:37;;;;;;;3.63;2.28;;;;;;;;;;4973913;28;20041;-82
2022/10/17 00:44:06;;;;;;;2.67;1.90;;;;;;;;;;4957401;28;20389;-82
2022/10/17 00:46:37;;;;;;;3.05;2.00;;;;;;;;;;4973672;28;20046;-82
2022/10/17 00:49:11;;;;;;;3.47;2.13;;;;;;;;;;4974492;28;20030;-82
2022/10/17 00:51:43;;;;;;;1.88;1.67;;;;;;;;;;4989341;28;20465;-82
2022/10/17 00:54:09;;;;;;;3.35;2.25;;;;;;;;;;4973367;28;20035;-82
2022/10/17 00:56:34;;;;;;;3.03;1.92;;;;;;;;;;4989643;28;20042;-82
2022/10/17 00:59:00;;;;;;;2.00;1.67;;;;;;;;;;4973358;28;20419;-82
2022/10/17 01:01:25;;;;;;;4.05;2.28;;;;;;;;;;4989291;28;20042;-82
2022/10/17 01:03:50;;;;;;;2.38;1.80;;;;;;;;;;4973107;28;20145;-82
2022/10/17 01:06:16;;;;;;;2.80;2.10;;;;;;;;;;4989419;28;20081;-82
2022/10/17 01:08:41;;;;;;;2.78;2.05;;;;;;;;;;4973007;28;20043;-81
2022/10/17 01:11:19;;;;;;;5.43;2.17;;;;;;;;;;4974353;28;20058;-82
2022/10/17 01:13:51;;;;;;;3.33;2.10;;;;;;;;;;4973281;28;20492;-81
2022/10/17 01:16:34;;;;;;;7.35;2.10;;;;;;;;;;4972786;28;20121;-83
2022/10/17 01:19:12;;;;;;;3.40;1.85;;;;;;;;;;4974449;28;20119;-83
2022/10/17 01:21:55;;;;;;;2.80;2.17;;;;;;;;;;4974366;28;20032;-82
2022/10/17 01:24:42;;;;;;;2.80;2.30;;;;;;;;;;4973239;28;20537;-82
2022/10/17 01:27:10;;;;;;;2.95;2.10;;;;;;;;;;4973008;28;20027;-83
2022/10/17 01:30:07;;;;;;;4.63;2.10;;;;;;;;;;4974140;28;20031;-82
2022/10/17 01:32:39;;;;;;;4.28;1.88;;;;;;;;;;4974113;28;20081;-82
2022/10/17 01:35:32;;;;;;;4.97;2.22;;;;;;;;;;4972891;28;20027;-82
2022/10/17 01:38:13;;;;;;;5.47;2.17;;;;;;;;;;4989068;28;20031;-82
2022/10/17 01:40:49;;;;;;;2.72;2.05;;;;;;;;;;4988979;28;20026;-82
2022/10/17 01:43:21;;;;;;;2.65;2.20;;;;;;;;;;4989276;28;20488;-82
2022/10/17 01:45:52;;;;;;;3.22;2.20;;;;;;;;;;4975672;28;20023;-82
2022/10/17 01:48:21;;;;;;;2.90;2.38;;;;;;;;;;4992539;28;20034;-82
2022/10/17 01:50:50;;;;;;;5.55;2.20;;;;;;;;;;4992347;28;20089;-82
2022/10/17 01:53:27;;;;;;;2.25;1.80;;;;;;;;;;4959956;28;20417;-82
2022/10/17 01:55:54;;;;;;;2.72;2.05;;;;;;;;;;4977253;28;20066;-82
2022/10/17 01:58:23;;;;;;;3.08;2.20;;;;;;;;;;4993091;28;20489;-82
2022/10/17 02:00:49;;;;;;;3.35;2.42;;;;;;;;;;4992342;28;20062;-82
2022/10/17 02:03:17;;;;;;;2.72;2.08;;;;;;;;;;4975980;28;20456;-82
2022/10/17 02:05:43;;;;;;;2.30;2.10;;;;;;;;;;4975730;28;20022;-82
2022/10/17 02:08:08;;;;;;;2.35;1.98;;;;;;;;;;4975771;28;20029;-82
2022/10/17 02:10:43;;;;;;;8.43;2.25;;;;;;;;;;4977635;28;20113;-82
2022/10/17 02:13:34;;;;;;;2.80;2.10;;;;;;;;;;4977081;28;20462;-82
2022/10/17 02:16:15;;;;;;;2.33;2.13;;;;;;;;;;4975440;28;20033;-82
2022/10/17 02:18:46;;;;;;;3.30;2.00;;;;;;;;;;4991703;28;20125;-81
2022/10/17 02:21:48;;;;;;;2.95;2.25;;;;;;;;;;4991565;28;20030;-81
2022/10/17 02:24:19;;;;;;;3.00;2.08;;;;;;;;;;4975260;28;20031;-82
2022/10/17 02:27:32;;;;;;;2.30;1.90;;;;;;;;;;4992440;28;20026;-82
2022/10/17 02:30:04;;;;;;;2.88;2.10;;;;;;;;;;4990155;28;20039;-82
2022/10/17 02:32:40;;;;;;;3.00;2.20;;;;;;;;;;4977049;28;20073;-82
2022/10/17 02:35:08;;;;;;;3.33;2.10;;;;;;;;;;4976794;28;20038;-82
2022/10/17 02:37:34;;;;;;;2.00;1.80;;;;;;;;;;4991592;28;20023;-82
2022/10/17 02:39:59;;;;;;;3.95;2.20;;;;;;;;;;4975154;28;20035;-82
2022/10/17 02:42:26;;;;;;;2.78;2.22;;;;;;;;;;4991872;28;20049;-82
2022/10/17 02:44:53;;;;;;;2.33;2.10;;;;;;;;;;4991525;28;20034;-82
2022/10/17 02:47:49;;;;;;;3.17;2.30;;;;;;;;;;4992022;28;20027;-82
2022/10/17 02:50:14;;;;;;;2.90;1.83;;;;;;;;;;4975113;28;20374;-82
2022/10/17 02:52:52;;;;;;;4.20;2.22;;;;;;;;;;4991099;28;20146;-81
2022/10/17 02:55:21;;;;;;;4.43;2.40;;;;;;;;;;4991012;28;20054;-82
2022/10/17 02:57:50;;;;;;;2.58;1.98;;;;;;;;;;4974375;28;20033;-81
2022/10/17 03:00:17;;;;;;;4.93;2.00;;;;;;;;;;4991046;28;20030;-82
2022/10/17 03:02:52;;;;;;;2.88;2.10;;;;;;;;;;4991041;28;20030;-82
2022/10/17 03:05:21;;;;;;;2.50;2.00;;;;;;;;;;4976166;28;20019;-82
2022/10/17 03:07:46;;;;;;;2.22;2.03;;;;;;;;;;4990956;28;20174;-82
2022/10/17 03:10:11;;;;;;;1.85;1.73;;;;;;;;;;4975329;28;20055;-81
2022/10/17 03:12:37;;;;;;;2.53;2.13;;;;;;;;;;4991057;28;20474;-81
2022/10/17 03:15:03;;;;;;;2.35;1.90;;;;;;;;;;4974498;28;20355;-81
2022/10/17 03:17:29;;;;;;;3.58;1.90;;;;;;;;;;4974583;28;20086;-82
2022/10/17 03:19:54;;;;;;;2.25;1.95;;;;;;;;;;4975371;28;20037;-81
2022/10/17 03:22:19;;;;;;;3.10;1.85;;;;;;;;;;4974689;28;20039;-81
2022/10/17 03:24:45;;;;;;;2.22;1.80;;;;;;;;;;4975893;28;20034;-81
2022/10/17 03:27:10;;;;;;;2.33;2.10;;;;;;;;;;4991263;28;20030;-81
2022/10/17 03:29:36;;;;;;;3.83;1.85;;;;;;;;;;4990544;28;20114;-82
2022/10/17 03:32:01;;;;;;;2.03;1.83;;;;;;;;;;4976263;28;20482;-82
2022/10/17 03:34:27;;;;;;;2.40;1.95;;;;;;;;;;4990771;28;20173;-81
2022/10/17 03:36:52;;;;;;;2.03;1.80;;;;;;;;;;4974605;28;20041;-81
2022/10/17 03:39:17;;;;;;;2.45;1.92;;;;;;;;;;4975608;28;20027;-82
2022/10/17 03:41:43;;;;;;;4.22;2.10;;;;;;;;;;4990935;28;20501;-82
2022/10/17 03:44:08;;;;;;;2.65;2.03;;;;;;;;;;4975447;28;20039;-82
2022/10/17 03:46:33;;;;;;;3.17;2.08;;;;;;;;;;4975692;28;20430;-82
2022/10/17 03:48:59;;;;;;;2.10;1.90;;;;;;;;;;4974287;28;20042;-82
2022/10/17 03:51:24;;;;;;;3.58;2.00;;;;;;;;;;4973961;28;20122;-82
2022/10/17 03:53:50;;;;;;;2.53;2.00;;;;;;;;;;4989991;28;20497;-81
2022/10/17 03:56:18;;;;;;;2.80;2.00;;;;;;;;;;4990258;28;20038;-82
2022/10/17 03:58:44;;;;;;;7.13;2.30;;;;;;;;;;4990352;28;20031;-81
2022/10/17 04:01:12;;;;;;;2.50;2.05;;;;;;;;;;4989982;28;20548;-81
2022/10/17 04:03:38;;;;;;;3.05;1.85;;;;;;;;;;4957684;28;20053;-82
2022/10/17 04:06:04;;;;;;;2.05;1.85;;;;;;;;;;4990411;28;20066;-85
2022/10/17 04:08:29;;;;;;;3.30;1.90;;;;;;;;;;4973193;28;20026;-82
2022/10/17 04:11:02;;;;;;;2.20;2.00;;;;;;;;;;4991179;28;20037;-82
2022/10/17 04:13:28;;;;;;;3.60;2.33;;;;;;;;;;4989870;28;20030;-84
2022/10/17 04:16:03;;;;;;;8.60;2.90;;;;;;;;;;4957647;28;20026;-84
2022/10/17 04:18:29;;;;;;;10.70;2.88;;;;;;;;;;4973482;28;20038;-83
2022/10/17 04:20:54;;;;;;;7.28;2.70;;;;;;;;;;4989628;28;20043;-82
2022/10/17 04:23:20;;;;;;;9.85;3.60;;;;;;;;;;4973243;28;20042;-81
2022/10/17 04:25:45;;;;;;;7.35;3.15;;;;;;;;;;4973587;28;20062;-81
2022/10/17 04:28:11;;;;;;;13.63;3.35;;;;;;;;;;4989409;28;20066;-81
2022/10/17 04:30:36;;;;;;;13.98;3.55;;;;;;;;;;4974772;28;20038;-81
2022/10/17 04:33:02;;;;;;;10.50;3.55;;;;;;;;;;4974984;28;20034;-81
2022/10/17 04:35:27;;;;;;;7.85;3.55;;;;;;;;;;4973767;28;20038;-82
2022/10/17 04:37:53;;;;;;;11.65;3.50;;;;;;;;;;4975495;28;20039;-80
2022/10/17 04:40:18;;;;;;;10.85;3.72;;;;;;;;;;4974648;28;20183;-80
2022/10/17 04:42:44;;;;;;;15.77;3.78;;;;;;;;;;4975106;28;20085;-81
2022/10/17 04:45:09;;;;;;;8.90;3.63;;;;;;;;;;4974856;28;20057;-82
2022/10/17 04:47:35;;;;;;;11.55;3.45;;;;;;;;;;4973899;28;20026;-81
2022/10/17 04:50:00;;;;;;;14.55;4.20;;;;;;;;;;4973289;28;20031;-82
2022/10/17 04:52:26;;;;;;;6.10;3.45;;;;;;;;;;4974610;28;20046;-81
2022/10/17 04:54:51;;;;;;;12.45;4.00;;;;;;;;;;4989843;28;20405;-82
2022/10/17 04:57:17;;;;;;;11.90;3.90;;;;;;;;;;4990030;28;20046;-81
2022/10/17 04:59:43;;;;;;;10.18;3.92;;;;;;;;;;4989805;28;20031;-82
2022/10/17 05:02:08;;;;;;;12.20;3.75;;;;;;;;;;4989820;28;20034;-81
2022/10/17 05:04:33;;;;;;;16.23;4.47;;;;;;;;;;4975349;28;20077;-83
2022/10/17 05:06:59;;;;;;;10.02;3.67;;;;;;;;;;4974828;28;20035;-83
2022/10/17 05:09:24;;;;;;;16.35;4.10;;;;;;;;;;4990744;28;20165;-83
2022/10/17 05:11:50;;;;;;;13.60;4.43;;;;;;;;;;4975527;28;20045;-83
2022/10/17 05:14:15;;;;;;;13.60;4.15;;;;;;;;;;4974368;28;20031;-84
2022/10/17 05:16:41;;;;;;;13.82;4.00;;;;;;;;;;4975199;28;20132;-84
2022/10/17 05:19:06;;;;;;;10.80;4.50;;;;;;;;;;4973118;28;20093;-83
2022/10/17 05:21:32;;;;;;;13.18;4.30;;;;;;;;;;4993724;28;20035;-83
2022/10/17 05:23:58;;;;;;;10.07;4.10;;;;;;;;;;4964035;28;20054;-84
2022/10/17 05:26:24;;;;;;;13.48;4.32;;;;;;;;;;4981242;28;20026;-84
2022/10/17 05:28:51;;;;;;;8.85;3.97;;;;;;;;;;4977223;28;20078;-84
2022/10/17 05:31:16;;;;;;;8.98;4.05;;;;;;;;;;4977863;28;20114;-84
2022/10/17 05:33:42;;;;;;;10.73;3.63;;;;;;;;;;4976733;28;20050;-85
2022/10/17 05:36:07;;;;;;;10.88;3.60;;;;;;;;;;4976815;28;20027;-83
2022/10/17 05:38:33;;;;;;;10.50;3.58;;;;;;;;;;4977692;28;20389;-84
2022/10/17 05:40:59;;;;;;;6.32;3.47;;;;;;;;;;4993171;28;20416;-84
2022/10/17 05:43:25;;;;;;;7.10;3.08;;;;;;;;;;4993862;28;20058;-83
2022/10/17 05:45:50;;;;;;;9.55;3.80;;;;;;;;;;4976497;28;20081;-84
2022/10/17 05:48:16;;;;;;;9.82;3.85;;;;;;;;;;4978726;28;20068;-83
2022/10/17 05:50:41;;;;;;;6.93;3.40;;;;;;;;;;4977783;28;20063;-83
2022/10/17 05:53:07;;;;;;;16.98;3.35;;;;;;;;;;4978137;28;20051;-83
2022/10/17 05:55:32;;;;;;;6.82;3.60;;;;;;;;;;4977495;28;20030;-83
2022/10/17 05:57:59;;;;;;;7.40;3.65;;;;;;;;;;4992478;28;20478;-83
2022/10/17 06:00:24;;;;;;;7.80;3.95;;;;;;;;;;4978086;28;20030;-83
2022/10/17 06:02:50;;;;;;;11.13;3.63;;;;;;;;;;4976095;28;20054;-83
2022/10/17 06:05:15;;;;;;;6.80;3.05;;;;;;;;;;4977652;28;20031;-83
2022/10/17 06:07:41;;;;;;;7.07;3.40;;;;;;;;;;4982588;28;20466;-84
2022/10/17 06:10:07;;;;;;;6.47;3.10;;;;;;;;;;4978869;28;20490;-84
2022/10/17 06:12:32;;;;;;;6.47;2.78;;;;;;;;;;4977261;28;20027;-84
2022/10/17 06:14:57;;;;;;;6.22;2.90;;;;;;;;;;4978783;28;20034;-83
2022/10/17 06:17:23;;;;;;;5.45;3.15;;;;;;;;;;4976507;28;20470;-83
2022/10/17 06:19:48;;;;;;;6.63;3.13;;;;;;;;;;4975861;28;20039;-82
2022/10/17 06:22:14;;;;;;;5.78;3.08;;;;;;;;;;4976522;28;20088;-83
2022/10/17 06:24:39;;;;;;;5.00;3.20;;;;;;;;;;4993850;28;20482;-83
2022/10/17 06:27:05;;;;;;;6.95;3.17;;;;;;;;;;4980418;28;20030;-83
2022/10/17 06:29:30;;;;;;;6.55;3.30;;;;;;;;;;4980226;28;20477;-83
2022/10/17 06:31:55;;;;;;;6.13;3.17;;;;;;;;;;4984144;28;20031;-82
2022/10/17 06:34:21;;;;;;;5.30;3.03;;;;;;;;;;4983526;28;20062;-83
2022/10/17 06:36:46;;;;;;;4.20;2.90;;;;;;;;;;4999179;28;20023;-82
2022/10/17 06:39:12;;;;;;;4.10;3.13;;;;;;;;;;4982829;28;20438;-83
2022/10/17 06:41:39;;;;;;;4.00;2.97;;;;;;;;;;4970546;28;20140;-83
2022/10/17 06:44:09;;;;;;;3.92;3.03;;;;;;;;;;4996779;28;20031;-82
2022/10/17 06:46:35;;;;;;;4.28;2.90;;;;;;;;;;4995016;28;20038;-82
2022/10/17 06:49:00;;;;;;;4.22;2.70;;;;;;;;;;4977427;28;20034;-82
2022/10/17 06:51:26;;;;;;;3.22;2.60;;;;;;;;;;4975578;28;20034;-82
2022/10/17 06:53:51;;;;;;;5.63;2.97;;;;;;;;;;4976676;28;20129;-82
2022/10/17 06:56:18;;;;;;;8.20;2.88;;;;;;;;;;4976754;28;20034;-83
2022/10/17 06:58:44;;;;;;;4.18;2.72;;;;;;;;;;4977058;28;20027;-82
2022/10/17 07:01:11;;;;;;;5.18;3.10;;;;;;;;;;4975011;28;20030;-83
2022/10/17 07:03:37;;;;;;;4.95;3.03;;;;;;;;;;4991289;28;20023;-83
2022/10/17 07:06:03;;;;;;;3.10;2.72;;;;;;;;;;4975224;28;20576;-83
2022/10/17 07:08:28;;;;;;;4.35;2.90;;;;;;;;;;4991503;28;20113;-83
2022/10/17 07:10:54;;;;;;;4.30;2.92;;;;;;;;;;4977098;28;20051;-83
2022/10/17 07:13:19;;;;;;;3.92;2.97;;;;;;;;;;4990980;28;20046;-83
2022/10/17 07:15:45;;;;;;;3.97;2.72;;;;;;;;;;4976124;28;20042;-83
2022/10/17 07:18:11;;;;;;;3.72;2.80;;;;;;;;;;4976242;28;20508;-83
2022/10/17 07:20:36;;;;;;;4.32;2.50;;;;;;;;;;4974860;28;20030;-83
2022/10/17 07:23:02;;;;;;;5.50;2.85;;;;;;;;;;4991185;28;20105;-83
2022/10/17 07:25:27;;;;;;;4.57;3.08;;;;;;;;;;4991018;28;20089;-84
2022/10/17 07:27:52;;;;;;;5.68;3.25;;;;;;;;;;4975753;28;20038;-83
2022/10/17 07:30:19;;;;;;;3.88;2.83;;;;;;;;;;4975180;28;20057;-83
2022/10/17 07:32:44;;;;;;;5.50;2.70;;;;;;;;;;4974725;28;20031;-83
2022/10/17 07:35:10;;;;;;;5.68;3.00;;;;;;;;;;4974360;28;20121;-83
2022/10/17 07:37:36;;;;;;;6.63;2.88;;;;;;;;;;4974753;28;20102;-82
2022/10/17 07:40:03;;;;;;;7.75;2.75;;;;;;;;;;4976057;28;20030;-83
2022/10/17 07:42:29;;;;;;;6.47;2.70;;;;;;;;;;4944465;28;20442;-83
2022/10/17 07:44:54;;;;;;;6.70;2.65;;;;;;;;;;4978740;28;20030;-83
2022/10/17 07:47:20;;;;;;;6.35;3.15;;;;;;;;;;4982584;28;20039;-83
2022/10/17 07:49:45;;;;;;;3.10;2.60;;;;;;;;;;4979588;28;20109;-83
2022/10/17 07:52:15;;;;;;;6.60;2.50;;;;;;;;;;4977077;28;20461;-81
2022/10/17 07:54:40;;;;;;;5.97;2.70;;;;;;;;;;4976247;28;20043;-81
2022/10/17 07:57:06;;;;;;;3.63;2.63;;;;;;;;;;4975175;28;20474;-82
2022/10/17 07:59:33;;;;;;;6.55;2.88;;;;;;;;;;4974236;28;20031;-81
2022/10/17 08:01:58;;;;;;;3.38;2.80;;;;;;;;;;4974393;28;20049;-81
2022/10/17 08:04:24;;;;;;;4.90;2.50;;;;;;;;;;4974243;28;20027;-81
2022/10/17 08:06:50;;;;;;;10.02;2.70;;;;;;;;;;4974526;28;20037;-81
2022/10/17 08:09:15;;;;;;;5.88;2.55;;;;;;;;;;4974018;28;20126;-81
2022/10/17 08:11:42;;;;;;;3.65;2.47;;;;;;;;;;4973784;28;20031;-80
2022/10/17 08:14:08;;;;;;;8.73;3.00;;;;;;;;;;4973887;28;20051;-80
2022/10/17 08:16:34;;;;;;;11.40;3.22;;;;;;;;;;4973723;28;20027;-80
2022/10/17 08:19:00;;;;;;;5.00;2.80;;;;;;;;;;4973762;28;20413;-81
2022/10/17 08:21:25;;;;;;;6.43;2.80;;;;;;;;;;4974090;28;20118;-80
2022/10/17 08:23:51;;;;;;;7.43;3.15;;;;;;;;;;4973951;28;20031;-80
2022/10/17 08:26:18;;;;;;;4.28;2.30;;;;;;;;;;4974292;28;20078;-80
2022/10/17 08:28:44;;;;;;;10.35;2.80;;;;;;;;;;4973612;28;20078;-81
2022/10/17 08:31:12;;;;;;;15.27;3.10;;;;;;;;;;4974029;28;20038;-80
2022/10/17 08:33:38;;;;;;;12.73;3.03;;;;;;;;;;4974825;28;20054;-80
2022/10/17 08:36:04;;;;;;;9.27;2.78;;;;;;;;;;4973434;28;20465;-80
2022/10/17 08:38:30;;;;;;;6.63;2.80;;;;;;;;;;4973532;28;20109;-81
2022/10/17 08:41:02;;;;;;;6.05;3.15;;;;;;;;;;4973437;28;20033;-81
2022/10/17 08:43:47;;;;;;;6.97;2.72;;;;;;;;;;4973389;28;20157;-81
2022/10/17 08:46:13;;;;;;;4.70;2.60;;;;;;;;;;4963082;28;20042;-81
2022/10/17 08:48:41;;;;;;;5.22;2.65;;;;;;;;;;4973745;28;20137;-80
2022/10/17 08:51:17;;;;;;;8.40;3.35;;;;;;;;;;4973523;28;20033;-82
2022/10/17 08:53:54;;;;;;;10.02;3.30;;;;;;;;;;4970696;28;20082;-83
2022/10/17 08:56:40;;;;;;;8.70;3.03;;;;;;;;;;4993021;28;20031;-82
2022/10/17 08:59:11;;;;;;;6.32;3.03;;;;;;;;;;4978116;28;20513;-82
2022/10/17 09:02:09;;;;;;;6.55;2.85;;;;;;;;;;4993424;28;20139;-81
2022/10/17 09:04:48;;;;;;;7.47;2.88;;;;;;;;;;4977056;28;20039;-81
2022/10/17 09:07:23;;;;;;;15.45;3.30;;;;;;;;;;4960638;28;20393;-81
2022/10/17 09:10:10;;;;;;;5.72;3.10;;;;;;;;;;4976618;28;20543;-81
2022/10/17 09:13:05;;;;;;;4.93;2.88;;;;;;;;;;4978086;28;20034;-79
2022/10/17 09:15:53;;;;;;;7.10;2.90;;;;;;;;;;4972544;28;20078;-79
2022/10/17 09:18:31;;;;;;;7.95;2.75;;;;;;;;;;4992858;28;20033;-81
2022/10/17 09:21:20;;;;;;;7.07;3.25;;;;;;;;;;4992896;28;20081;-81
2022/10/17 09:23:54;;;;;;;7.57;3.00;;;;;;;;;;5004141;28;20019;-81
2022/10/17 09:26:20;;;;;;;7.25;2.97;;;;;;;;;;4976168;28;20384;-81
2022/10/17 09:28:51;;;;;;;5.68;3.33;;;;;;;;;;4977454;28;20027;-80
2022/10/17 09:31:23;;;;;;;6.88;2.97;;;;;;;;;;4977893;28;20037;-81
2022/10/17 09:33:50;;;;;;;4.60;3.00;;;;;;;;;;5009161;28;20118;-82
2022/10/17 09:36:23;;;;;;;9.23;2.95;;;;;;;;;;4977318;28;20031;-81
2022/10/17 09:38:56;;;;;;;8.35;2.60;;;;;;;;;;5008671;28;20143;-81
2022/10/17 09:41:43;;;;;;;4.93;2.65;;;;;;;;;;5008842;28;20037;-81
2022/10/17 09:44:33;;;;;;;5.00;2.75;;;;;;;;;;4975876;28;20038;-81
2022/10/17 09:46:59;;;;;;;4.88;2.83;;;;;;;;;;5008717;28;20050;-80
2022/10/17 09:49:31;;;;;;;4.30;2.90;;;;;;;;;;4976191;28;20081;-81
2022/10/17 09:51:56;;;;;;;8.30;2.80;;;;;;;;;;5008726;28;20429;-81
2022/10/17 09:54:27;;;;;;;5.05;2.60;;;;;;;;;;4975779;28;20034;-81
2022/10/17 09:57:07;;;;;;;4.60;2.88;;;;;;;;;;5008075;28;20019;-81
2022/10/17 09:59:54;;;;;;;7.63;3.28;;;;;;;;;;4976196;28;20022;-81
2022/10/17 10:02:21;;;;;;;5.78;2.90;;;;;;;;;;4959693;28;20034;-81
2022/10/17 10:04:54;;;;;;;8.50;3.10;;;;;;;;;;4974663;28;20101;-81
2022/10/17 10:07:20;;;;;;;6.95;3.13;;;;;;;;;;4976246;28;20042;-81
2022/10/17 10:09:47;;;;;;;5.38;2.80;;;;;;;;;;4992160;28;20086;-81
2022/10/17 10:12:25;;;;;;;7.13;2.70;;;;;;;;;;4960727;28;20030;-82
2022/10/17 10:14:51;;;;;;;13.15;3.30;;;;;;;;;;4975728;28;20037;-81
2022/10/17 10:17:27;;;;;;;4.60;2.97;;;;;;;;;;4975895;28;20470;-81
2022/10/17 10:19:52;;;;;;;7.00;3.03;;;;;;;;;;4977032;28;20469;-81
2022/10/17 10:22:19;;;;;;;7.70;2.90;;;;;;;;;;4992268;28;20034;-81
2022/10/17 10:24:45;;;;;;;7.30;2.63;;;;;;;;;;4975608;28;20050;-81
2022/10/17 10:27:15;;;;;;;8.02;3.08;;;;;;;;;;4975677;28;20069;-80
2022/10/17 10:29:50;;;;;;;11.02;2.95;;;;;;;;;;4991850;28;20041;-80
2022/10/17 10:32:24;;;;;;;4.35;2.60;;;;;;;;;;4959458;28;20031;-81
2022/10/17 10:34:52;;;;;;;5.15;2.65;;;;;;;;;;4973947;28;20062;-81
2022/10/17 10:37:20;;;;;;;5.57;2.83;;;;;;;;;;4975472;28;20039;-81
2022/10/17 10:39:46;;;;;;;4.93;3.00;;;;;;;;;;4991546;28;20035;-81
2022/10/17 10:42:38;;;;;;;6.20;2.72;;;;;;;;;;4975318;28;20042;-81
2022/10/17 10:45:16;;;;;;;6.22;2.80;;;;;;;;;;4974320;28;20085;-81
2022/10/17 10:47:51;;;;;;;6.03;2.90;;;;;;;;;;4991557;28;20121;-81
2022/10/17 10:50:32;;;;;;;6.50;3.10;;;;;;;;;;4991672;28;20031;-80
2022/10/17 10:53:22;;;;;;;5.18;2.80;;;;;;;;;;4991357;28;20047;-81
2022/10/17 10:55:54;;;;;;;7.65;2.65;;;;;;;;;;4976280;28;20051;-81
2022/10/17 10:58:33;;;;;;;7.47;2.63;;;;;;;;;;4975453;28;20058;-82
2022/10/17 11:01:03;;;;;;;6.00;2.83;;;;;;;;;;4975175;28;20073;-82
2022/10/17 11:03:34;;;;;;;5.50;2.85;;;;;;;;;;4991551;28;20033;-84
2022/10/17 11:06:04;;;;;;;7.68;2.55;;;;;;;;;;4991287;28;20073;-82
2022/10/17 11:08:39;;;;;;;3.70;2.47;;;;;;;;;;4991329;28;20033;-82
2022/10/17 11:11:30;;;;;;;5.03;3.15;;;;;;;;;;4991797;28;20117;-81
2022/10/17 11:14:07;;;;;;;6.63;2.55;;;;;;;;;;4974402;28;20045;-82
2022/10/17 11:16:35;;;;;;;5.78;2.78;;;;;;;;;;4974771;28;20026;-81
2022/10/17 11:19:23;;;;;;;13.23;3.75;;;;;;;;;;4974978;28;20030;-81
2022/10/17 11:22:01;;;;;;;4.90;3.30;;;;;;;;;;4974744;28;20124;-81
2022/10/17 11:24:36;;;;;;;10.63;4.95;;;;;;;;;;4976070;28;20469;-81
2022/10/17 11:27:05;;;;;;;6.07;4.57;;;;;;;;;;4990799;28;20031;-81
2022/10/17 11:29:33;;;;;;;5.88;4.97;;;;;;;;;;4974413;28;20095;-81
2022/10/17 11:32:20;;;;;;;9.70;5.80;;;;;;;;;;4990950;28;20066;-81
2022/10/17 11:34:49;;;;;;;11.43;5.97;;;;;;;;;;4958070;28;20039;-80
2022/10/17 11:37:28;;;;;;;10.73;6.60;;;;;;;;;;4990762;28;20050;-80
2022/10/17 11:39:59;;;;;;;9.73;6.72;;;;;;;;;;4974135;28;20031;-80
2022/10/17 11:42:42;;;;;;;14.52;6.55;;;;;;;;;;4990480;28;20018;-81
2022/10/17 11:45:15;;;;;;;14.63;7.37;;;;;;;;;;4974361;28;20057;-81
2022/10/17 11:47:45;;;;;;;10.82;7.25;;;;;;;;;;4990312;28;20749;-81
2022/10/17 11:50:41;;;;;;;12.70;7.70;;;;;;;;;;4990925;28;20030;-81
2022/10/17 11:53:19;;;;;;;12.57;7.40;;;;;;;;;;4969978;28;20081;-81
2022/10/17 11:55:45;;;;;;;10.32;7.38;;;;;;;;;;4974593;28;20070;-82
2022/10/17 11:58:13;;;;;;;14.85;6.68;;;;;;;;;;4990519;28;20030;-82
2022/10/17 12:00:55;;;;;;;10.25;6.57;;;;;;;;;;4975106;28;20062;-82
2022/10/17 12:03:32;;;;;;;8.07;6.07;;;;;;;;;;4975203;28;20579;-81
2022/10/17 12:06:04;;;;;;;8.40;6.40;;;;;;;;;;4973626;28;20485;-83
2022/10/17 12:08:41;;;;;;;7.50;5.65;;;;;;;;;;4975486;28;20034;-78
2022/10/17 12:11:34;;;;;;;10.48;5.82;;;;;;;;;;4975041;28;20023;-78
2022/10/17 12:14:00;;;;;;;12.75;5.35;;;;;;;;;;4975046;28;20027;-81
2022/10/17 12:16:28;;;;;;;9.13;5.97;;;;;;;;;;4990154;28;20033;-81
2022/10/17 12:18:59;;;;;;;10.05;5.82;;;;;;;;;;4975246;28;20073;-81
2022/10/17 12:21:25;;;;;;;7.63;5.57;;;;;;;;;;4974055;28;20037;-82
2022/10/17 12:23:52;;;;;;;10.07;6.05;;;;;;;;;;4973680;28;20042;-81
2022/10/17 12:26:25;;;;;;;8.93;6.10;;;;;;;;;;4990217;28;20019;-79
2022/10/17 12:28:51;;;;;;;11.95;5.85;;;;;;;;;;4973222;28;20501;-81
2022/10/17 12:31:17;;;;;;;8.65;5.45;;;;;;;;;;4974838;28;20038;-81
2022/10/17 12:33:55;;;;;;;8.68;6.15;;;;;;;;;;4973506;28;20050;-82
2022/10/17 12:36:29;;;;;;;8.68;5.50;;;;;;;;;;4973327;28;20118;-81
2022/10/17 12:39:00;;;;;;;9.65;5.50;;;;;;;;;;4974707;28;20085;-79
2022/10/17 12:41:38;;;;;;;10.32;5.68;;;;;;;;;;4974663;28;20030;-79
2022/10/17 12:44:12;;;;;;;11.77;5.60;;;;;;;;;;4974805;28;20057;-79
2022/10/17 12:46:54;;;;;;;8.50;5.68;;;;;;;;;;4974566;28;20031;-81
2022/10/17 12:49:35;;;;;;;8.57;5.38;;;;;;;;;;4990448;28;20027;-81
2022/10/17 12:52:23;;;;;;;9.70;5.78;;;;;;;;;;4976536;28;20042;-79
2022/10/17 12:54:52;;;;;;;8.50;5.28;;;;;;;;;;4976693;28;20117;-79
2022/10/17 12:57:36;;;;;;;9.70;5.20;;;;;;;;;;4976971;28;20066;-80
2022/10/17 13:00:12;;;;;;;10.90;5.03;;;;;;;;;;4976716;28;20477;-80
2022/10/17 13:02:37;;;;;;;8.82;5.22;;;;;;;;;;4974826;28;20488;-80
2022/10/17 13:05:12;;;;;;;9.13;4.97;;;;;;;;;;4990062;28;20023;-79
2022/10/17 13:07:40;;;;;;;10.00;5.32;;;;;;;;;;4990760;28;20031;-80
2022/10/17 13:10:15;;;;;;;7.18;4.72;;;;;;;;;;4994520;28;20030;-79
2022/10/17 13:12:40;;;;;;;8.10;5.00;;;;;;;;;;4980961;28;20027;-79
2022/10/17 13:15:07;;;;;;;8.75;4.93;;;;;;;;;;4997063;28;20038;-79
2022/10/17 13:17:33;;;;;;;6.70;4.60;;;;;;;;;;4994060;28;20022;-79
2022/10/17 13:19:59;;;;;;;7.28;4.82;;;;;;;;;;4975924;28;20030;-80
2022/10/17 13:22:27;;;;;;;8.70;4.75;;;;;;;;;;4975735;28;20390;-80
2022/10/17 13:25:08;;;;;;;6.72;4.53;;;;;;;;;;4989921;28;20027;-81
2022/10/17 13:27:34;;;;;;;6.53;4.47;;;;;;;;;;4989524;28;20023;-81
2022/10/17 13:30:01;;;;;;;6.13;4.22;;;;;;;;;;4973146;28;20548;-81
2022/10/17 13:32:34;;;;;;;9.18;4.55;;;;;;;;;;4957348;28;20134;-81
2022/10/17 13:35:24;;;;;;;10.82;3.95;;;;;;;;;;4989558;28;20031;-80
2022/10/17 13:37:49;;;;;;;9.52;4.72;;;;;;;;;;4975744;28;20131;-80
2022/10/17 13:40:20;;;;;;;15.77;4.30;;;;;;;;;;4975393;28;20037;-80
2022/10/17 13:42:46;;;;;;;9.88;4.38;;;;;;;;;;4976378;28;20027;-79
2022/10/17 13:45:29;;;;;;;8.98;4.50;;;;;;;;;;4975252;28;20109;-79
2022/10/17 13:47:55;;;;;;;6.00;4.00;;;;;;;;;;4992699;28;20117;-79
2022/10/17 13:50:28;;;;;;;7.32;4.13;;;;;;;;;;4976822;28;20038;-79
2022/10/17 13:53:17;;;;;;;10.95;3.85;;;;;;;;;;4992726;28;20077;-79
2022/10/17 13:56:00;;;;;;;4.65;3.45;;;;;;;;;;4992779;28;20022;-79
2022/10/17 13:58:39;;;;;;;9.25;3.95;;;;;;;;;;4992892;28;20026;-82
2022/10/17 14:01:06;;;;;;;8.48;3.80;;;;;;;;;;4994668;28;20031;-82
2022/10/17 14:03:31;;;;;;;5.95;3.90;;;;;;;;;;4977001;28;20030;-83
2022/10/17 14:05:58;;;;;;;8.52;3.65;;;;;;;;;;4978115;28;20059;-82
2022/10/17 14:08:23;;;;;;;7.97;3.78;;;;;;;;;;4980371;28;20019;-83
2022/10/17 14:10:49;;;;;;;5.53;3.85;;;;;;;;;;4983596;28;20069;-83
2022/10/17 14:13:21;;;;;;;7.40;3.38;;;;;;;;;;5003459;28;20061;-83
2022/10/17 14:15:46;;;;;;;9.38;3.78;;;;;;;;;;5005036;28;20031;-88
2022/10/17 14:18:20;;;;;;;4.25;3.10;;;;;;;;;;4988890;28;20410;-87
2022/10/17 14:20:46;;;;;;;5.70;3.30;;;;;;;;;;4980015;28;20023;-88
2022/10/17 14:23:29;;;;;;;5.68;3.55;;;;;;;;;;4994258;28;20119;-88
2022/10/17 14:26:13;;;;;;;5.45;3.10;;;;;;;;;;4995086;28;20109;-87
2022/10/17 14:28:40;;;;;;;4.53;3.00;;;;;;;;;;4993811;28;20023;-87
2022/10/17 14:31:24;;;;;;;6.20;3.15;;;;;;;;;;4993779;28;20098;-86
2022/10/17 14:33:50;;;;;;;6.53;3.30;;;;;;;;;;4997061;28;20035;-87
2022/10/17 14:36:15;;;;;;;7.75;3.13;;;;;;;;;;4977932;28;20089;-84
2022/10/17 14:38:51;;;;;;;5.07;3.28;;;;;;;;;;4977442;28;20553;-85
2022/10/17 14:41:26;;;;;;;7.78;2.90;;;;;;;;;;4976064;28;20027;-85
2022/10/17 14:43:56;;;;;;;4.47;2.88;;;;;;;;;;4992294;28;20031;-84
2022/10/17 14:46:21;;;;;;;4.63;2.78;;;;;;;;;;4991428;28;20473;-85
2022/10/17 14:48:55;;;;;;;5.72;2.90;;;;;;;;;;4975825;28;20130;-85
2022/10/17 14:51:21;;;;;;;6.60;3.28;;;;;;;;;;4992148;28;20093;-84
2022/10/17 14:54:23;;;;;;;8.02;3.17;;;;;;;;;;4991989;28;20450;-84
2022/10/17 14:56:53;;;;;;;6.68;3.08;;;;;;;;;;4977167;28;20039;-83
2022/10/17 14:59:22;;;;;;;5.15;3.13;;;;;;;;;;4976462;28;20496;-83